SJO411 RJTT-RJCC
Flight info
| Callsign | SJO411 |
|---|---|
| Flight time | 1h 8m |
| Altitude | 35000 |
| Route | BRUCE AGRIS Y11 SAMBO Y119 OHMAR Y13 SIRAO Y139 NAVER |
| Aircraft | A321/M-SDE3FGHIRWY/LB1 |
Departure
| Time | 2026-05-04 19:59 |
|---|---|
| Airport | Tokyo Haneda International Airport (RJTT) |
Arrival
| Time | 2026-05-04 21:08 |
|---|---|
| Airport | New Chitose Airport (RJCC) |
| Time | Latitude | Longitude | Altitude | Speed | Heading |
|---|---|---|---|---|---|
| 2026-05-04 19:34 | 35.55930 | 139.78360 | 28 ft | 0 kts | 240° |
| 2026-05-04 19:43 | 35.55935 | 139.78371 | 28 ft | 2 kts | 240° |
| 2026-05-04 19:43 | 35.55942 | 139.78386 | 28 ft | 2 kts | 240° |
| 2026-05-04 19:43 | 35.55949 | 139.78403 | 28 ft | 2 kts | 239° |
| 2026-05-04 19:44 | 35.55954 | 139.78413 | 28 ft | 0 kts | 240° |
| 2026-05-04 19:44 | 35.55962 | 139.78427 | 28 ft | 2 kts | 222° |
| 2026-05-04 19:44 | 35.55975 | 139.78438 | 28 ft | 2 kts | 206° |
| 2026-05-04 19:44 | 35.55989 | 139.78444 | 28 ft | 2 kts | 188° |
| 2026-05-04 19:45 | 35.56004 | 139.78444 | 28 ft | 2 kts | 171° |
| 2026-05-04 19:45 | 35.56018 | 139.78439 | 28 ft | 1 kts | 154° |
| 2026-05-04 19:45 | 35.56023 | 139.78436 | 28 ft | 1 kts | 149° |
| 2026-05-04 19:45 | 35.56025 | 139.78435 | 28 ft | 0 kts | 150° |
| 2026-05-04 19:48 | 35.56023 | 139.78438 | 28 ft | 1 kts | 140° |
| 2026-05-04 19:48 | 35.56016 | 139.78456 | 28 ft | 2 kts | 104° |
| 2026-05-04 19:48 | 35.56012 | 139.78485 | 28 ft | 3 kts | 91° |
| 2026-05-04 19:49 | 35.56019 | 139.78523 | 28 ft | 5 kts | 66° |
| 2026-05-04 19:49 | 35.56036 | 139.78567 | 28 ft | 6 kts | 63° |
| 2026-05-04 19:49 | 35.56058 | 139.78613 | 28 ft | 6 kts | 58° |
| 2026-05-04 19:49 | 35.56076 | 139.78657 | 28 ft | 4 kts | 64° |
| 2026-05-04 19:50 | 35.56088 | 139.78699 | 28 ft | 5 kts | 80° |
| 2026-05-04 19:50 | 35.56078 | 139.78751 | 28 ft | 7 kts | 125° |
| 2026-05-04 19:50 | 35.56031 | 139.78795 | 28 ft | 9 kts | 148° |
| 2026-05-04 19:50 | 35.55967 | 139.78841 | 28 ft | 11 kts | 151° |
| 2026-05-04 19:51 | 35.55895 | 139.78891 | 28 ft | 12 kts | 149° |
| 2026-05-04 19:51 | 35.55813 | 139.78950 | 28 ft | 14 kts | 149° |
| 2026-05-04 19:51 | 35.55726 | 139.79013 | 28 ft | 15 kts | 150° |
| 2026-05-04 19:51 | 35.55631 | 139.79079 | 28 ft | 16 kts | 150° |
| 2026-05-04 19:52 | 35.55530 | 139.79149 | 28 ft | 16 kts | 149° |
| 2026-05-04 19:52 | 35.55430 | 139.79224 | 28 ft | 17 kts | 149° |
| 2026-05-04 19:52 | 35.55325 | 139.79300 | 28 ft | 17 kts | 149° |
| 2026-05-04 19:52 | 35.55215 | 139.79378 | 28 ft | 18 kts | 150° |
| 2026-05-04 19:53 | 35.55109 | 139.79450 | 28 ft | 14 kts | 149° |
| 2026-05-04 19:53 | 35.55020 | 139.79513 | 28 ft | 15 kts | 149° |
| 2026-05-04 19:53 | 35.54924 | 139.79582 | 28 ft | 16 kts | 150° |
| 2026-05-04 19:53 | 35.54829 | 139.79649 | 28 ft | 15 kts | 149° |
| 2026-05-04 19:54 | 35.54733 | 139.79717 | 28 ft | 16 kts | 150° |
| 2026-05-04 19:54 | 35.54634 | 139.79788 | 28 ft | 16 kts | 150° |
| 2026-05-04 19:54 | 35.54530 | 139.79862 | 28 ft | 17 kts | 150° |
| 2026-05-04 19:54 | 35.54443 | 139.79923 | 28 ft | 8 kts | 148° |
| 2026-05-04 19:55 | 35.54392 | 139.79961 | 28 ft | 8 kts | 149° |
| 2026-05-04 19:55 | 35.54333 | 139.80002 | 28 ft | 10 kts | 150° |
| 2026-05-04 19:55 | 35.54266 | 139.80051 | 28 ft | 9 kts | 149° |
| 2026-05-04 19:55 | 35.54215 | 139.80093 | 28 ft | 9 kts | 132° |
| 2026-05-04 19:56 | 35.54203 | 139.80168 | 28 ft | 2 kts | 72° |
| 2026-05-04 19:56 | 35.54207 | 139.80180 | 28 ft | 0 kts | 66° |
| 2026-05-04 19:56 | 35.54210 | 139.80188 | 28 ft | 1 kts | 64° |
| 2026-05-04 19:57 | 35.54217 | 139.80205 | 28 ft | 2 kts | 61° |
| 2026-05-04 19:57 | 35.54229 | 139.80231 | 28 ft | 3 kts | 57° |
| 2026-05-04 19:57 | 35.54249 | 139.80254 | 28 ft | 4 kts | 32° |
| 2026-05-04 19:57 | 35.54282 | 139.80266 | 28 ft | 5 kts | 6° |
| 2026-05-04 19:58 | 35.54322 | 139.80260 | 28 ft | 6 kts | 341° |
| 2026-05-04 19:58 | 35.54365 | 139.80234 | 28 ft | 8 kts | 330° |
| 2026-05-04 19:58 | 35.54613 | 139.80054 | 28 ft | 78 kts | 330° |
| 2026-05-04 19:58 | 35.55291 | 139.79572 | 29 ft | 142 kts | 330° |
| 2026-05-04 19:59 | 35.56236 | 139.78893 | 300 ft | 169 kts | 331° |
| 2026-05-04 19:59 | 35.57395 | 139.78301 | 671 ft | 196 kts | 354° |
| 2026-05-04 19:59 | 35.58794 | 139.78769 | 1091 ft | 229 kts | 28° |
| 2026-05-04 19:59 | 35.60182 | 139.79863 | 1834 ft | 241 kts | 33° |
| 2026-05-04 20:00 | 35.61501 | 139.81097 | 2626 ft | 240 kts | 36° |
| 2026-05-04 20:00 | 35.62782 | 139.82425 | 3241 ft | 245 kts | 37° |
| 2026-05-04 20:00 | 35.64095 | 139.83792 | 3895 ft | 247 kts | 31° |
| 2026-05-04 20:00 | 35.65640 | 139.84726 | 4446 ft | 250 kts | 13° |
| 2026-05-04 20:01 | 35.67338 | 139.85191 | 5016 ft | 255 kts | 7° |
| 2026-05-04 20:01 | 35.69096 | 139.85564 | 5647 ft | 257 kts | 1° |
| 2026-05-04 20:01 | 35.70851 | 139.85295 | 6260 ft | 254 kts | 335° |
| 2026-05-04 20:01 | 35.72338 | 139.84174 | 6928 ft | 253 kts | 320° |
| 2026-05-04 20:02 | 35.73749 | 139.82863 | 7508 ft | 259 kts | 321° |
| 2026-05-04 20:02 | 35.75392 | 139.81841 | 8057 ft | 273 kts | 344° |
| 2026-05-04 20:02 | 35.77322 | 139.81897 | 8688 ft | 288 kts | 11° |
| 2026-05-04 20:02 | 35.79198 | 139.82788 | 9313 ft | 295 kts | 19° |
| 2026-05-04 20:03 | 35.81116 | 139.83801 | 9894 ft | 301 kts | 19° |
| 2026-05-04 20:03 | 35.83046 | 139.84814 | 10387 ft | 309 kts | 18° |
| 2026-05-04 20:03 | 35.85067 | 139.85860 | 10680 ft | 324 kts | 18° |
| 2026-05-04 20:03 | 35.87202 | 139.86949 | 10959 ft | 340 kts | 18° |
| 2026-05-04 20:04 | 35.89465 | 139.87999 | 11336 ft | 346 kts | 8° |
| 2026-05-04 20:04 | 35.91832 | 139.88167 | 11908 ft | 336 kts | 346° |
| 2026-05-04 20:04 | 35.94012 | 139.87405 | 12546 ft | 327 kts | 333° |
| 2026-05-04 20:04 | 35.96130 | 139.86374 | 13177 ft | 327 kts | 331° |
| 2026-05-04 20:05 | 35.98370 | 139.85663 | 13773 ft | 341 kts | 347° |
| 2026-05-04 20:05 | 36.00781 | 139.85892 | 14345 ft | 359 kts | 6° |
| 2026-05-04 20:05 | 36.03186 | 139.86887 | 14880 ft | 368 kts | 13° |
| 2026-05-04 20:05 | 36.05578 | 139.88034 | 15357 ft | 374 kts | 14° |
| 2026-05-04 20:06 | 36.08036 | 139.89230 | 15839 ft | 379 kts | 13° |
| 2026-05-04 20:06 | 36.10509 | 139.90419 | 16333 ft | 382 kts | 13° |
| 2026-05-04 20:06 | 36.12971 | 139.91583 | 16781 ft | 386 kts | 12° |
| 2026-05-04 20:06 | 36.15521 | 139.92781 | 17212 ft | 391 kts | 12° |
| 2026-05-04 20:07 | 36.18079 | 139.93936 | 17678 ft | 391 kts | 8° |
| 2026-05-04 20:07 | 36.20726 | 139.94681 | 18099 ft | 385 kts | 358° |
| 2026-05-04 20:07 | 36.23389 | 139.94888 | 18543 ft | 379 kts | 350° |
| 2026-05-04 20:07 | 36.26005 | 139.94824 | 19019 ft | 380 kts | 347° |
| 2026-05-04 20:08 | 36.28669 | 139.94710 | 19436 ft | 383 kts | 347° |
| 2026-05-04 20:08 | 36.31327 | 139.94597 | 19809 ft | 388 kts | 347° |
| 2026-05-04 20:08 | 36.34048 | 139.94499 | 20206 ft | 392 kts | 347° |
| 2026-05-04 20:08 | 36.36793 | 139.94415 | 20648 ft | 395 kts | 347° |
| 2026-05-04 20:09 | 36.39541 | 139.94334 | 21028 ft | 398 kts | 347° |
| 2026-05-04 20:09 | 36.42300 | 139.94286 | 21463 ft | 402 kts | 348° |
| 2026-05-04 20:09 | 36.45128 | 139.94369 | 21881 ft | 406 kts | 350° |
| 2026-05-04 20:09 | 36.47969 | 139.94488 | 22249 ft | 410 kts | 350° |
| 2026-05-04 20:10 | 36.50808 | 139.94617 | 22592 ft | 413 kts | 350° |
| 2026-05-04 20:10 | 36.53692 | 139.94746 | 22952 ft | 416 kts | 349° |
| 2026-05-04 20:10 | 36.56623 | 139.94878 | 23280 ft | 420 kts | 349° |
| 2026-05-04 20:10 | 36.59542 | 139.95001 | 23605 ft | 423 kts | 349° |
| 2026-05-04 20:11 | 36.62479 | 139.95132 | 24012 ft | 424 kts | 349° |
| 2026-05-04 20:11 | 36.65434 | 139.95258 | 24322 ft | 427 kts | 349° |
| 2026-05-04 20:11 | 36.68429 | 139.95387 | 24684 ft | 429 kts | 349° |
| 2026-05-04 20:11 | 36.71395 | 139.95515 | 24996 ft | 432 kts | 348° |
| 2026-05-04 20:12 | 36.74412 | 139.95644 | 25258 ft | 436 kts | 349° |
| 2026-05-04 20:12 | 36.77474 | 139.95772 | 25561 ft | 440 kts | 348° |
| 2026-05-04 20:12 | 36.80532 | 139.95908 | 25868 ft | 442 kts | 348° |
| 2026-05-04 20:12 | 36.83622 | 139.96043 | 26208 ft | 445 kts | 348° |
| 2026-05-04 20:13 | 36.86739 | 139.96306 | 26516 ft | 453 kts | 352° |
| 2026-05-04 20:13 | 36.89908 | 139.96814 | 26779 ft | 463 kts | 356° |
| 2026-05-04 20:13 | 36.93103 | 139.97556 | 27046 ft | 471 kts | 358° |
| 2026-05-04 20:13 | 36.96279 | 139.98389 | 27290 ft | 475 kts | 359° |
| 2026-05-04 20:14 | 36.99560 | 139.99268 | 27514 ft | 479 kts | 359° |
| 2026-05-04 20:14 | 37.02815 | 140.00124 | 27732 ft | 483 kts | 359° |
| 2026-05-04 20:14 | 37.06110 | 140.00975 | 27957 ft | 486 kts | 359° |
| 2026-05-04 20:14 | 37.09435 | 140.01829 | 28223 ft | 488 kts | 359° |
| 2026-05-04 20:15 | 37.12784 | 140.02695 | 28495 ft | 490 kts | 358° |
| 2026-05-04 20:15 | 37.16111 | 140.03554 | 28711 ft | 492 kts | 358° |
| 2026-05-04 20:15 | 37.19492 | 140.04427 | 28941 ft | 495 kts | 358° |
| 2026-05-04 20:15 | 37.22834 | 140.05292 | 29198 ft | 496 kts | 358° |
| 2026-05-04 20:16 | 37.26235 | 140.06171 | 29372 ft | 500 kts | 358° |
| 2026-05-04 20:16 | 37.29655 | 140.07057 | 29596 ft | 501 kts | 359° |
| 2026-05-04 20:16 | 37.33058 | 140.07935 | 29749 ft | 505 kts | 359° |
| 2026-05-04 20:16 | 37.36493 | 140.08827 | 29905 ft | 509 kts | 359° |
| 2026-05-04 20:17 | 37.39987 | 140.09741 | 30136 ft | 510 kts | 359° |
| 2026-05-04 20:17 | 37.43472 | 140.10655 | 30411 ft | 510 kts | 359° |
| 2026-05-04 20:17 | 37.46948 | 140.11565 | 30658 ft | 511 kts | 359° |
| 2026-05-04 20:17 | 37.50413 | 140.12476 | 31036 ft | 508 kts | 359° |
| 2026-05-04 20:18 | 37.53862 | 140.13377 | 31402 ft | 505 kts | 359° |
| 2026-05-04 20:18 | 37.57296 | 140.14273 | 31708 ft | 504 kts | 359° |
| 2026-05-04 20:18 | 37.60680 | 140.15155 | 31993 ft | 503 kts | 359° |
| 2026-05-04 20:18 | 37.64098 | 140.16045 | 32253 ft | 503 kts | 359° |
| 2026-05-04 20:19 | 37.67550 | 140.16948 | 32536 ft | 502 kts | 359° |
| 2026-05-04 20:19 | 37.70940 | 140.17837 | 32837 ft | 500 kts | 359° |
| 2026-05-04 20:19 | 37.74340 | 140.18724 | 33063 ft | 500 kts | 359° |
| 2026-05-04 20:19 | 37.77755 | 140.19615 | 33226 ft | 502 kts | 359° |
| 2026-05-04 20:20 | 37.81165 | 140.20509 | 33466 ft | 502 kts | 359° |
| 2026-05-04 20:20 | 37.84615 | 140.21413 | 33659 ft | 503 kts | 360° |
| 2026-05-04 20:20 | 37.88045 | 140.22317 | 33854 ft | 503 kts | 359° |
| 2026-05-04 20:20 | 37.91449 | 140.23221 | 34003 ft | 501 kts | 359° |
| 2026-05-04 20:21 | 37.94832 | 140.24116 | 34011 ft | 500 kts | 359° |
| 2026-05-04 20:21 | 38.05077 | 140.26817 | 34031 ft | 500 kts | 360° |
| 2026-05-04 20:22 | 38.11799 | 140.28598 | 34034 ft | 498 kts | 359° |
| 2026-05-04 20:22 | 38.18587 | 140.30396 | 34033 ft | 500 kts | 0° |
| 2026-05-04 20:23 | 38.25415 | 140.32208 | 34034 ft | 502 kts | 360° |
| 2026-05-04 20:23 | 38.32195 | 140.34024 | 34031 ft | 500 kts | 360° |
| 2026-05-04 20:24 | 38.39029 | 140.35864 | 34007 ft | 501 kts | 2° |
| 2026-05-04 20:24 | 38.45818 | 140.37982 | 34011 ft | 504 kts | 3° |
| 2026-05-04 20:25 | 38.52587 | 140.40178 | 33997 ft | 504 kts | 3° |
| 2026-05-04 20:25 | 38.59369 | 140.42372 | 34003 ft | 504 kts | 4° |
| 2026-05-04 20:26 | 38.66141 | 140.44556 | 34011 ft | 504 kts | 4° |
| 2026-05-04 20:26 | 38.72954 | 140.46762 | 34027 ft | 501 kts | 3° |
| 2026-05-04 20:27 | 38.79670 | 140.48933 | 34036 ft | 501 kts | 4° |
| 2026-05-04 20:27 | 38.86441 | 140.51125 | 34031 ft | 502 kts | 4° |
| 2026-05-04 20:28 | 38.93182 | 140.53320 | 34008 ft | 500 kts | 4° |
| 2026-05-04 20:28 | 38.99925 | 140.55515 | 33986 ft | 501 kts | 4° |
| 2026-05-04 20:29 | 39.06680 | 140.57727 | 33977 ft | 499 kts | 4° |
| 2026-05-04 20:29 | 39.13437 | 140.59927 | 33939 ft | 501 kts | 5° |
| 2026-05-04 20:30 | 39.20172 | 140.62140 | 34009 ft | 504 kts | 4° |
| 2026-05-04 20:30 | 39.26934 | 140.64374 | 34010 ft | 498 kts | 4° |
| 2026-05-04 20:31 | 39.33665 | 140.66588 | 34003 ft | 500 kts | 6° |
| 2026-05-04 20:31 | 39.40374 | 140.68805 | 33967 ft | 499 kts | 6° |
| 2026-05-04 20:32 | 39.47114 | 140.71040 | 34021 ft | 500 kts | 6° |
| 2026-05-04 20:32 | 39.53824 | 140.73267 | 33982 ft | 498 kts | 6° |
| 2026-05-04 20:33 | 39.60485 | 140.75476 | 33976 ft | 496 kts | 6° |
| 2026-05-04 20:33 | 39.67181 | 140.77704 | 33970 ft | 495 kts | 6° |
| 2026-05-04 20:34 | 39.73865 | 140.79929 | 33972 ft | 498 kts | 6° |
| 2026-05-04 20:34 | 39.80517 | 140.82163 | 33966 ft | 496 kts | 6° |
| 2026-05-04 20:35 | 39.87178 | 140.84395 | 33964 ft | 494 kts | 6° |
| 2026-05-04 20:35 | 39.93836 | 140.86624 | 33956 ft | 494 kts | 7° |
| 2026-05-04 20:36 | 40.00487 | 140.88861 | 33957 ft | 493 kts | 7° |
| 2026-05-04 20:36 | 40.07122 | 140.91101 | 33960 ft | 493 kts | 7° |
| 2026-05-04 20:37 | 40.13763 | 140.93329 | 33967 ft | 491 kts | 6° |
| 2026-05-04 20:37 | 40.20425 | 140.94878 | 33973 ft | 481 kts | 358° |
| 2026-05-04 20:38 | 40.27029 | 140.95389 | 33978 ft | 474 kts | 353° |
| 2026-05-04 20:38 | 40.33589 | 140.95573 | 33973 ft | 466 kts | 353° |
| 2026-05-04 20:39 | 40.40072 | 140.95758 | 33888 ft | 464 kts | 353° |
| 2026-05-04 20:39 | 40.43259 | 140.95856 | 33647 ft | 461 kts | 353° |
| 2026-05-04 20:39 | 40.46497 | 140.95956 | 33409 ft | 465 kts | 353° |
| 2026-05-04 20:40 | 40.49740 | 140.96060 | 33170 ft | 465 kts | 354° |
| 2026-05-04 20:40 | 40.52949 | 140.96164 | 32956 ft | 464 kts | 354° |
| 2026-05-04 20:40 | 40.56158 | 140.96272 | 32745 ft | 461 kts | 354° |
| 2026-05-04 20:40 | 40.59357 | 140.96381 | 32531 ft | 460 kts | 354° |
| 2026-05-04 20:41 | 40.62571 | 140.96486 | 32314 ft | 460 kts | 354° |
| 2026-05-04 20:41 | 40.65757 | 140.96594 | 32102 ft | 460 kts | 354° |
| 2026-05-04 20:41 | 40.68967 | 140.96699 | 31885 ft | 460 kts | 354° |
| 2026-05-04 20:41 | 40.72153 | 140.96808 | 31674 ft | 458 kts | 354° |
| 2026-05-04 20:42 | 40.75315 | 140.96913 | 31465 ft | 457 kts | 354° |
| 2026-05-04 20:42 | 40.78474 | 140.97015 | 31253 ft | 455 kts | 355° |
| 2026-05-04 20:42 | 40.81677 | 140.97118 | 31028 ft | 457 kts | 355° |
| 2026-05-04 20:42 | 40.84841 | 140.97221 | 30822 ft | 455 kts | 355° |
| 2026-05-04 20:43 | 40.87981 | 140.97327 | 30607 ft | 454 kts | 355° |
| 2026-05-04 20:43 | 40.91141 | 140.97433 | 30395 ft | 454 kts | 355° |
| 2026-05-04 20:43 | 40.94283 | 140.97540 | 30186 ft | 454 kts | 355° |
| 2026-05-04 20:43 | 40.97474 | 140.97647 | 29971 ft | 452 kts | 355° |
| 2026-05-04 20:44 | 41.00590 | 140.97751 | 29741 ft | 452 kts | 355° |
| 2026-05-04 20:44 | 41.03724 | 140.97853 | 29541 ft | 450 kts | 355° |
| 2026-05-04 20:44 | 41.06833 | 140.97957 | 29359 ft | 448 kts | 356° |
| 2026-05-04 20:44 | 41.09949 | 140.98064 | 29165 ft | 444 kts | 356° |
| 2026-05-04 20:45 | 41.12949 | 140.98166 | 28929 ft | 440 kts | 356° |
| 2026-05-04 20:45 | 41.16015 | 140.98270 | 28697 ft | 438 kts | 356° |
| 2026-05-04 20:45 | 41.19049 | 140.98373 | 28444 ft | 434 kts | 356° |
| 2026-05-04 20:45 | 41.22039 | 140.98476 | 28134 ft | 430 kts | 356° |
| 2026-05-04 20:46 | 41.25007 | 140.98576 | 27779 ft | 427 kts | 356° |
| 2026-05-04 20:46 | 41.27977 | 140.98706 | 27374 ft | 425 kts | 359° |
| 2026-05-04 20:46 | 41.30907 | 140.99203 | 26977 ft | 425 kts | 6° |
| 2026-05-04 20:46 | 41.33764 | 141.00157 | 26601 ft | 424 kts | 13° |
| 2026-05-04 20:47 | 41.36548 | 141.01450 | 26139 ft | 422 kts | 16° |
| 2026-05-04 20:47 | 41.39262 | 141.02805 | 25720 ft | 417 kts | 17° |
| 2026-05-04 20:47 | 41.41965 | 141.04166 | 25325 ft | 411 kts | 16° |
| 2026-05-04 20:47 | 41.44622 | 141.05495 | 24922 ft | 406 kts | 16° |
| 2026-05-04 20:48 | 41.47243 | 141.06790 | 24517 ft | 401 kts | 16° |
| 2026-05-04 20:48 | 41.49834 | 141.08069 | 24105 ft | 396 kts | 16° |
| 2026-05-04 20:48 | 41.52380 | 141.09328 | 23684 ft | 391 kts | 16° |
| 2026-05-04 20:48 | 41.54908 | 141.10577 | 23251 ft | 387 kts | 16° |
| 2026-05-04 20:49 | 41.57435 | 141.11830 | 22826 ft | 382 kts | 15° |
| 2026-05-04 20:49 | 41.59893 | 141.13049 | 22400 ft | 378 kts | 15° |
| 2026-05-04 20:49 | 41.62345 | 141.14265 | 21966 ft | 375 kts | 15° |
| 2026-05-04 20:49 | 41.64765 | 141.15465 | 21535 ft | 372 kts | 15° |
| 2026-05-04 20:50 | 41.67170 | 141.16660 | 21086 ft | 369 kts | 15° |
| 2026-05-04 20:50 | 41.69554 | 141.17848 | 20661 ft | 366 kts | 15° |
| 2026-05-04 20:50 | 41.71949 | 141.19054 | 20245 ft | 362 kts | 15° |
| 2026-05-04 20:50 | 41.74292 | 141.20239 | 19842 ft | 359 kts | 15° |
| 2026-05-04 20:51 | 41.76602 | 141.21410 | 19430 ft | 357 kts | 15° |
| 2026-05-04 20:51 | 41.78900 | 141.22574 | 19016 ft | 354 kts | 15° |
| 2026-05-04 20:51 | 41.81191 | 141.23735 | 18603 ft | 352 kts | 15° |
| 2026-05-04 20:51 | 41.83468 | 141.24890 | 18187 ft | 350 kts | 15° |
| 2026-05-04 20:52 | 41.85761 | 141.26053 | 17753 ft | 348 kts | 15° |
| 2026-05-04 20:52 | 41.88003 | 141.27190 | 17333 ft | 346 kts | 15° |
| 2026-05-04 20:52 | 41.90242 | 141.28326 | 16921 ft | 344 kts | 15° |
| 2026-05-04 20:52 | 41.92487 | 141.29468 | 16496 ft | 342 kts | 15° |
| 2026-05-04 20:53 | 41.94691 | 141.30618 | 16059 ft | 342 kts | 18° |
| 2026-05-04 20:53 | 41.96782 | 141.32147 | 15624 ft | 346 kts | 28° |
| 2026-05-04 20:53 | 41.98688 | 141.34168 | 15192 ft | 348 kts | 37° |
| 2026-05-04 20:53 | 42.00438 | 141.36371 | 14763 ft | 348 kts | 38° |
| 2026-05-04 20:54 | 42.02180 | 141.38632 | 14325 ft | 346 kts | 39° |
| 2026-05-04 20:54 | 42.03898 | 141.40865 | 13886 ft | 344 kts | 38° |
| 2026-05-04 20:54 | 42.05600 | 141.43069 | 13468 ft | 342 kts | 38° |
| 2026-05-04 20:54 | 42.07317 | 141.45287 | 13046 ft | 339 kts | 38° |
| 2026-05-04 20:55 | 42.09005 | 141.47461 | 12635 ft | 337 kts | 38° |
| 2026-05-04 20:55 | 42.10697 | 141.49638 | 12220 ft | 334 kts | 38° |
| 2026-05-04 20:55 | 42.12451 | 141.51621 | 11789 ft | 327 kts | 27° |
| 2026-05-04 20:55 | 42.14477 | 141.52896 | 11372 ft | 317 kts | 13° |
| 2026-05-04 20:56 | 42.16595 | 141.53575 | 10952 ft | 314 kts | 8° |
| 2026-05-04 20:56 | 42.18720 | 141.54156 | 10581 ft | 310 kts | 7° |
| 2026-05-04 20:56 | 42.20799 | 141.54721 | 10357 ft | 301 kts | 8° |
| 2026-05-04 20:56 | 42.22819 | 141.55278 | 10206 ft | 291 kts | 7° |
| 2026-05-04 20:57 | 42.24777 | 141.55824 | 10079 ft | 280 kts | 8° |
| 2026-05-04 20:57 | 42.26662 | 141.56352 | 9857 ft | 273 kts | 7° |
| 2026-05-04 20:57 | 42.28514 | 141.56871 | 9568 ft | 269 kts | 8° |
| 2026-05-04 20:57 | 42.30321 | 141.57379 | 9271 ft | 266 kts | 7° |
| 2026-05-04 20:58 | 42.32136 | 141.57890 | 8791 ft | 269 kts | 9° |
| 2026-05-04 20:58 | 42.33873 | 141.58841 | 8477 ft | 273 kts | 29° |
| 2026-05-04 20:58 | 42.35244 | 141.60634 | 8083 ft | 277 kts | 45° |
| 2026-05-04 20:58 | 42.36415 | 141.62700 | 7644 ft | 273 kts | 46° |
| 2026-05-04 20:59 | 42.37530 | 141.64700 | 7274 ft | 266 kts | 46° |
| 2026-05-04 20:59 | 42.38653 | 141.66702 | 6923 ft | 263 kts | 46° |
| 2026-05-04 20:59 | 42.39743 | 141.68628 | 6591 ft | 259 kts | 46° |
| 2026-05-04 20:59 | 42.40837 | 141.70552 | 6265 ft | 256 kts | 46° |
| 2026-05-04 21:00 | 42.41912 | 141.72441 | 5948 ft | 255 kts | 46° |
| 2026-05-04 21:00 | 42.43133 | 141.74141 | 5569 ft | 248 kts | 26° |
| 2026-05-04 21:00 | 42.44725 | 141.74826 | 5220 ft | 238 kts | 359° |
| 2026-05-04 21:00 | 42.46359 | 141.74605 | 4898 ft | 235 kts | 349° |
| 2026-05-04 21:01 | 42.47983 | 141.74281 | 4575 ft | 236 kts | 349° |
| 2026-05-04 21:01 | 42.49603 | 141.73972 | 4156 ft | 241 kts | 350° |
| 2026-05-04 21:01 | 42.51297 | 141.73651 | 3447 ft | 247 kts | 350° |
| 2026-05-04 21:01 | 42.52945 | 141.73354 | 3031 ft | 233 kts | 351° |
| 2026-05-04 21:02 | 42.54518 | 141.73084 | 2947 ft | 219 kts | 351° |
| 2026-05-04 21:02 | 42.55936 | 141.72845 | 2968 ft | 199 kts | 350° |
| 2026-05-04 21:02 | 42.57315 | 141.72612 | 3024 ft | 193 kts | 350° |
| 2026-05-04 21:02 | 42.58570 | 141.72400 | 3106 ft | 170 kts | 349° |
| 2026-05-04 21:03 | 42.59661 | 141.72215 | 3026 ft | 148 kts | 348° |
| 2026-05-04 21:03 | 42.60660 | 141.72041 | 3014 ft | 143 kts | 348° |
| 2026-05-04 21:03 | 42.61656 | 141.71861 | 3016 ft | 143 kts | 348° |
| 2026-05-04 21:03 | 42.62633 | 141.71680 | 2837 ft | 142 kts | 348° |
| 2026-05-04 21:04 | 42.63617 | 141.71500 | 2639 ft | 142 kts | 348° |
| 2026-05-04 21:04 | 42.64597 | 141.71323 | 2442 ft | 141 kts | 349° |
| 2026-05-04 21:04 | 42.65571 | 141.71149 | 2251 ft | 141 kts | 349° |
| 2026-05-04 21:04 | 42.66543 | 141.70978 | 2060 ft | 140 kts | 349° |
| 2026-05-04 21:05 | 42.67512 | 141.70808 | 1870 ft | 140 kts | 349° |
| 2026-05-04 21:05 | 42.68465 | 141.70642 | 1668 ft | 139 kts | 349° |
| 2026-05-04 21:05 | 42.69439 | 141.70476 | 1458 ft | 137 kts | 351° |
| 2026-05-04 21:05 | 42.70364 | 141.70323 | 1261 ft | 131 kts | 350° |
| 2026-05-04 21:06 | 42.71247 | 141.70146 | 1053 ft | 130 kts | 351° |
| 2026-05-04 21:06 | 42.72170 | 141.69989 | 911 ft | 135 kts | 352° |
| 2026-05-04 21:06 | 42.73099 | 141.69849 | 770 ft | 138 kts | 353° |
| 2026-05-04 21:06 | 42.74080 | 141.69659 | 567 ft | 144 kts | 351° |
| 2026-05-04 21:07 | 42.75095 | 141.69455 | 362 ft | 151 kts | 353° |
| 2026-05-04 21:07 | 42.76160 | 141.69276 | 176 ft | 152 kts | 353° |
| 2026-05-04 21:07 | 42.77114 | 141.69099 | 117 ft | 127 kts | 353° |
| 2026-05-04 21:07 | 42.77884 | 141.68950 | 88 ft | 89 kts | 354° |
| 2026-05-04 21:08 | 42.78335 | 141.68892 | 88 ft | 39 kts | 354° |
| 2026-05-04 21:08 | 42.78451 | 141.68874 | 88 ft | 4 kts | 354° |
| 2026-05-04 21:08 | 42.78486 | 141.68867 | 88 ft | 5 kts | 354° |
| 2026-05-04 21:08 | 42.78530 | 141.68861 | 88 ft | 7 kts | 354° |
| 2026-05-04 21:09 | 42.78585 | 141.68852 | 88 ft | 8 kts | 350° |
| 2026-05-04 21:09 | 42.78646 | 141.68831 | 88 ft | 9 kts | 335° |
| 2026-05-04 21:09 | 42.78682 | 141.68753 | 88 ft | 10 kts | 278° |
| 2026-05-04 21:09 | 42.78676 | 141.68672 | 88 ft | 7 kts | 251° |
| 2026-05-04 21:10 | 42.78632 | 141.68631 | 87 ft | 8 kts | 191° |
| 2026-05-04 21:10 | 42.78568 | 141.68634 | 87 ft | 10 kts | 174° |
| 2026-05-04 21:10 | 42.78494 | 141.68646 | 88 ft | 11 kts | 174° |
| 2026-05-04 21:10 | 42.78421 | 141.68613 | 88 ft | 11 kts | 234° |
| 2026-05-04 21:11 | 42.78379 | 141.68517 | 88 ft | 12 kts | 213° |
| 2026-05-04 21:11 | 42.78298 | 141.68491 | 88 ft | 10 kts | 206° |
| 2026-05-04 21:11 | 42.78271 | 141.68457 | 88 ft | 5 kts | 224° |
| 2026-05-04 21:11 | 42.78239 | 141.68414 | 88 ft | 7 kts | 225° |
| 2026-05-04 21:12 | 42.78199 | 141.68361 | 88 ft | 8 kts | 224° |
| 2026-05-04 21:12 | 42.78169 | 141.68321 | 88 ft | 4 kts | 225° |
| 2026-05-04 21:12 | 42.78164 | 141.68314 | 88 ft | 1 kts | 225° |
| 2026-05-04 21:12 | 42.78157 | 141.68306 | 88 ft | 1 kts | 224° |
| 2026-05-04 21:13 | 42.78157 | 141.68304 | 88 ft | 0 kts | 224° |